Estación de Purranque

Ultimos registro cada 15 minutos 61
Estación Fecha / Hora Temperatura Humedad Lluvia Velocidad Dirección Radiación Presion
61 Purranque 08-05-2026 15:00 12,2 73,3 0 3,7 197 378,1 1012,1
60 Purranque 08-05-2026 14:45 12 75,5 0 4,3 187 406,9 1011,9
59 Purranque 08-05-2026 14:30 12,1 76,7 0 3,7 188 433,1 1011,5
58 Purranque 08-05-2026 14:15 11,8 77,8 0 3,7 197 458,1 1011,4
57 Purranque 08-05-2026 14:00 11,4 78,4 0 4,3 199 490,6 1011,2
56 Purranque 08-05-2026 13:45 11,2 79,8 0 4,3 205 543,1 1011,2
55 Purranque 08-05-2026 13:30 11,4 79,4 0 4,7 194 150,6 1011,3
54 Purranque 08-05-2026 13:15 10,8 81,9 0 4,7 202 603,1 1011,4
53 Purranque 08-05-2026 13:00 10,5 83,5 0 3,3 197 260,6 1011,4
52 Purranque 08-05-2026 12:45 10,6 85,4 0 3 208 455,6 1011,5
51 Purranque 08-05-2026 12:30 9,6 87,6 0 3,3 205 229,4 1011,5
50 Purranque 08-05-2026 12:15 9,6 87,4 0 4,3 209 171,9 1011,5
49 Purranque 08-05-2026 12:00 9,9 88,2 0 3,7 208 700,6 1011,3
48 Purranque 08-05-2026 11:45 8,9 88,2 0 3 202 293,1 1011,4
47 Purranque 08-05-2026 11:30 8,8 91 0 3,3 211 143,1 1011,5
46 Purranque 08-05-2026 11:15 8,8 91,3 0 3,3 208 170,6 1011,4
45 Purranque 08-05-2026 11:00 8,6 93,3 0 3 211 186,9 1011,4
44 Purranque 08-05-2026 10:45 8,3 94 0 3 218 176,9 1011,3
43 Purranque 08-05-2026 10:30 8,3 93,7 0 3,3 213 183,1 1011,4
42 Purranque 08-05-2026 10:15 8,4 92,8 0 2,3 202 553,1 1011,1
41 Purranque 08-05-2026 10:00 7,6 94,8 0 2,3 211 300,6 1010,7
40 Purranque 08-05-2026 09:45 7,5 96,8 0 1,7 204 110,6 1010,6
39 Purranque 08-05-2026 09:30 7,3 98,3 0 2,3 213 98,1 1010,6
38 Purranque 08-05-2026 09:15 7 99,9 0 2 212 91,9 1010,4
37 Purranque 08-05-2026 09:00 6,9 100 0 2,3 213 65,6 1010,1
36 Purranque 08-05-2026 08:45 6,9 100 0 2 222 71,9 1009,8
35 Purranque 08-05-2026 08:30 6,8 100 0 1,7 220 20,6 1009,8
34 Purranque 08-05-2026 08:15 6,8 100 0 1,3 227 14,4 1009,4
33 Purranque 08-05-2026 08:00 6,6 100 0 1 233 8,1 1009
32 Purranque 08-05-2026 07:45 6,2 100 0 0 220 0,6 1008,9
31 Purranque 08-05-2026 07:30 6,2 100 0 0,3 220 0,6 1008,8
30 Purranque 08-05-2026 07:15 6,1 100 0 0,3 220 0,6 1008,9
29 Purranque 08-05-2026 07:00 6,7 100 0,2 0,7 219 0,6 1009
28 Purranque 08-05-2026 06:45 6,7 100 0 0,7 218 0,6 1008,9
27 Purranque 08-05-2026 06:30 6,6 100 0 0,7 194 0,6 1008,8
26 Purranque 08-05-2026 06:15 6,6 100 0 0,3 195 0,6 1008,5
25 Purranque 08-05-2026 06:00 6,5 100 0,2 1 188 0,6 1008,3
24 Purranque 08-05-2026 05:45 6,4 100 0 0,7 175 0,6 1007,9
23 Purranque 08-05-2026 05:30 6,4 100 0 0,7 173 0,6 1007,7
22 Purranque 08-05-2026 05:15 6,3 100 0 0,7 143 0,6 1007,5
21 Purranque 08-05-2026 05:00 6,2 100 0 0,7 145 0,6 1007,3
20 Purranque 08-05-2026 04:45 6,1 100 0 1 138 0,6 1007,4
19 Purranque 08-05-2026 04:30 6,1 100 0,2 1 139 0,6 1007,6
18 Purranque 08-05-2026 04:15 6 100 0,2 1,3 138 0,6 1007,5
17 Purranque 08-05-2026 04:00 5,9 99,8 0 1 163 0,6 1007,6
16 Purranque 08-05-2026 03:45 5,9 99,6 0 1 167 0,6 1007,6
15 Purranque 08-05-2026 03:30 5,9 99,6 0 1,3 154 0,6 1007,6
14 Purranque 08-05-2026 03:15 6 99,6 0 1,3 178 0,6 1007,7
13 Purranque 08-05-2026 03:00 6 99,4 0 0,7 119 0,6 1007,7
12 Purranque 08-05-2026 02:45 6 99,2 0,2 0,7 102 0,6 1007,5
11 Purranque 08-05-2026 02:30 5,9 99,1 0 1 69 0,6 1007,6
10 Purranque 08-05-2026 02:15 5,9 99,1 0 1,3 80 0,6 1007,7
9 Purranque 08-05-2026 02:00 5,9 99,2 0 1,3 97 0,6 1007,8
8 Purranque 08-05-2026 01:45 5,8 99,2 0 1,7 76 0,6 1007,7
7 Purranque 08-05-2026 01:30 5,9 99,2 0 1,3 74 0,6 1007,8
6 Purranque 08-05-2026 01:15 6 99,2 0 1,3 65 0,6 1008,1
5 Purranque 08-05-2026 01:00 6 99,2 0 2 48 0,6 1008,2
4 Purranque 08-05-2026 00:45 6 99,3 0 2 48 0,6 1008,3
3 Purranque 08-05-2026 00:30 6 99,3 0,2 1,7 65 0,6 1008,7
2 Purranque 08-05-2026 00:15 6 99,3 0,2 2 65 0,6 1008,9
1 Purranque 08-05-2026 00:00 6 99,1 0,4 1,7 69 0,6 1008,8